Time;durP1;ratioP1;P1;durP2;ratioP2;P2;SDS_P1;SDS_P2;PMS_P1;PMS_P2;Temp;Humidity;BMP_temperature;BMP_pressure;BME280_temperature;BME280_humidity;BME280_pressure;Samples;Min_cycle;Max_cycle;Signal;HPM_P1;HPM_P2
2022/11/22 00:01:41;;;;;;;38.08;19.30;;;;;;;-1.03;80.61;99983.58;1622165;86;21539;-81
2022/11/22 00:04:26;;;;;;;36.83;20.97;;;;;;;-1.09;80.42;99987.70;1620075;86;21022;-81
2022/11/22 00:07:11;;;;;;;36.30;19.27;;;;;;;-1.15;80.48;99985.89;1622140;86;21466;-81
2022/11/22 00:09:56;;;;;;;36.77;19.67;;;;;;;-1.17;80.57;99978.66;1618539;86;21616;-82
2022/11/22 00:12:42;;;;;;;39.90;20.75;;;;;;;-1.15;80.64;99966.02;1623668;86;21066;-81
2022/11/22 00:15:27;;;;;;;31.07;17.12;;;;;;;-1.15;80.56;99961.80;1620937;86;21134;-81
2022/11/22 00:18:12;;;;;;;35.65;18.98;;;;;;;-1.15;80.63;99966.88;1623113;86;21692;-81
2022/11/22 00:21:05;;;;;;;30.05;17.05;;;;;;;-1.14;80.60;99972.80;1621113;86;21178;-81
2022/11/22 00:23:56;;;;;;;32.17;18.92;;;;;;;-1.16;80.59;99977.84;1626979;86;21129;-81
2022/11/22 00:26:41;;;;;;;35.63;18.48;;;;;;;-1.16;80.54;99971.91;1624868;86;21126;-81
2022/11/22 00:29:26;;;;;;;40.47;18.97;;;;;;;-1.26;80.43;99982.28;1623299;86;21492;-82
2022/11/22 00:32:11;;;;;;;38.17;17.75;;;;;;;-1.29;80.53;99979.67;1622272;86;21808;-81
2022/11/22 00:34:56;;;;;;;35.85;17.45;;;;;;;-1.34;80.50;99973.23;1624253;86;22308;-82
2022/11/22 00:37:41;;;;;;;21.45;11.97;;;;;;;-1.35;80.60;99974.05;1626183;85;21169;-81
2022/11/22 00:40:26;;;;;;;30.85;17.92;;;;;;;-1.37;80.47;99969.77;1621777;86;21077;-82
2022/11/22 00:43:11;;;;;;;33.30;18.10;;;;;;;-1.38;80.61;99962.99;1622655;86;21094;-81
2022/11/22 00:45:56;;;;;;;35.63;19.07;;;;;;;-1.37;80.57;99969.36;1617730;87;21122;-81
2022/11/22 00:48:41;;;;;;;36.10;18.73;;;;;;;-1.37;80.59;99968.51;1621961;87;21078;-81
2022/11/22 00:51:26;;;;;;;38.03;18.50;;;;;;;-1.34;80.66;99962.23;1620454;85;21046;-82
2022/11/22 00:54:11;;;;;;;35.90;18.00;;;;;;;-1.31;80.67;99956.37;1621930;86;21680;-81
2022/11/22 00:56:56;;;;;;;34.45;18.32;;;;;;;-1.31;80.60;99952.56;1625460;85;21689;-81
2022/11/22 00:59:42;;;;;;;33.45;18.82;;;;;;;-1.29;80.70;99949.66;1625421;86;37100;-81
2022/11/22 01:02:27;;;;;;;38.83;18.02;;;;;;;-1.34;80.53;99946.61;1624989;86;21953;-81
2022/11/22 01:05:12;;;;;;;39.03;18.70;;;;;;;-1.39;80.58;99943.12;1624298;83;21130;-82
2022/11/22 01:07:57;;;;;;;41.23;19.37;;;;;;;-1.44;80.57;99928.22;1623508;86;21081;-81
2022/11/22 01:10:43;;;;;;;45.28;20.25;;;;;;;-1.47;80.62;99939.97;1621499;86;21179;-81
2022/11/22 01:13:29;;;;;;;45.10;19.98;;;;;;;-1.49;80.58;99930.21;1625084;85;21085;-81
2022/11/22 01:16:15;;;;;;;46.50;21.20;;;;;;;-1.56;80.58;99928.40;1622557;85;21089;-82
2022/11/22 01:19:00;;;;;;;43.45;22.30;;;;;;;-1.60;80.57;99922.82;1623472;86;21061;-82
2022/11/22 01:21:45;;;;;;;46.30;22.02;;;;;;;-1.67;80.63;99918.03;1620586;86;21436;-82
2022/11/22 01:24:30;;;;;;;50.03;23.12;;;;;;;-1.65;80.73;99923.98;1622973;86;21134;-82
2022/11/22 01:27:15;;;;;;;51.63;22.77;;;;;;;-1.61;80.70;99919.43;1623261;85;21085;-82
2022/11/22 01:30:00;;;;;;;58.87;25.20;;;;;;;-1.68;80.65;99918.44;1623892;84;21003;-82
2022/11/22 01:32:45;;;;;;;55.30;23.95;;;;;;;-1.70;80.73;99910.36;1625243;86;21002;-81
2022/11/22 01:35:30;;;;;;;54.40;23.87;;;;;;;-1.67;80.76;99900.28;1622904;86;21555;-81
2022/11/22 01:38:15;;;;;;;50.67;22.77;;;;;;;-1.69;80.67;99896.86;1621710;86;21153;-81
2022/11/22 01:41:00;;;;;;;47.83;21.90;;;;;;;-1.74;80.73;99884.09;1624906;85;21066;-82
2022/11/22 01:43:45;;;;;;;57.38;25.37;;;;;;;-1.78;80.66;99878.52;1620626;86;21733;-81
2022/11/22 01:46:37;;;;;;;59.87;25.47;;;;;;;-1.83;80.68;99870.37;1626847;86;21077;-82
2022/11/22 01:49:30;;;;;;;51.80;24.43;;;;;;;-1.88;80.75;99884.61;1622122;85;21085;-82
2022/11/22 01:52:22;;;;;;;54.63;23.62;;;;;;;-1.89;80.80;99896.42;1620930;86;21121;-81
2022/11/22 01:55:11;;;;;;;58.87;24.32;;;;;;;-1.91;80.72;99901.87;1627601;85;21074;-80
2022/11/22 01:57:57;;;;;;;56.10;25.55;;;;;;;-1.89;80.86;99904.02;1626540;86;21082;-79
2022/11/22 02:00:43;;;;;;;62.15;24.15;;;;;;;-1.87;80.85;99900.26;1626617;83;21006;-79
2022/11/22 02:03:31;;;;;;;60.50;24.92;;;;;;;-1.88;80.88;99899.41;1628097;85;21093;-80
2022/11/22 02:06:17;;;;;;;60.45;25.65;;;;;;;-1.85;80.88;99901.15;1625772;86;21081;-79
2022/11/22 02:09:12;;;;;;;59.67;26.82;;;;;;;-1.86;80.90;99902.83;1623943;84;21085;-79
2022/11/22 02:12:01;;;;;;;58.17;24.15;;;;;;;-1.85;80.93;99908.34;1622752;85;22003;-79
2022/11/22 02:14:47;;;;;;;63.00;25.17;;;;;;;-1.80;80.96;99897.04;1631089;86;21098;-79
2022/11/22 02:17:31;;;;;;;63.25;26.85;;;;;;;-1.81;80.87;99899.12;1617373;86;22212;-79
2022/11/22 02:20:18;;;;;;;63.85;26.45;;;;;;;-1.84;80.92;99901.19;1631855;86;21122;-79
2022/11/22 02:23:23;;;;;;;65.37;26.15;;;;;;;-1.84;80.91;99893.58;1632873;85;21137;-79
2022/11/22 02:26:08;;;;;;;64.12;25.15;;;;;;;-1.87;80.92;99897.72;1630011;87;21074;-79
2022/11/22 02:28:58;;;;;;;61.27;24.77;;;;;;;-1.88;80.96;99894.34;1631866;85;21065;-78
2022/11/22 02:31:46;;;;;;;64.67;26.48;;;;;;;-1.86;81.00;99884.23;1630729;85;21055;-79
2022/11/22 02:34:47;;;;;;;71.25;26.52;;;;;;;-1.87;80.99;99889.71;1632738;86;21078;-79
2022/11/22 02:37:32;;;;;;;67.22;24.90;;;;;;;-1.82;81.05;99904.61;1633397;86;21087;-79
2022/11/22 02:40:19;;;;;;;64.92;25.68;;;;;;;-1.84;81.00;99903.72;1633086;87;21039;-79
2022/11/22 02:43:13;;;;;;;65.30;24.80;;;;;;;-1.85;81.04;99904.95;1631121;86;21055;-79
2022/11/22 02:46:07;;;;;;;69.53;27.62;;;;;;;-1.87;80.99;99899.84;1454675;86;5001092;-78
2022/11/22 02:48:52;;;;;;;67.05;26.33;;;;;;;-1.85;81.08;99903.68;1583660;88;20948;-79
2022/11/22 02:51:37;;;;;;;64.10;25.20;;;;;;;-1.79;81.16;99902.14;1591421;88;21068;-78
2022/11/22 02:54:22;;;;;;;70.85;27.02;;;;;;;-1.75;81.13;99900.53;1591216;88;21539;-79
2022/11/22 02:57:07;;;;;;;72.15;26.77;;;;;;;-1.74;81.15;99902.24;1588236;87;21348;-79
2022/11/22 02:59:52;;;;;;;69.77;28.62;;;;;;;-1.71;81.12;99898.51;1589671;86;21539;-80
2022/11/22 03:02:37;;;;;;;74.12;27.25;;;;;;;-1.69;81.13;99898.12;1588506;88;21575;-79
2022/11/22 03:05:22;;;;;;;68.57;27.50;;;;;;;-1.70;81.08;99903.61;1594235;88;21461;-79
2022/11/22 03:08:07;;;;;;;74.65;27.48;;;;;;;-1.70;81.10;99896.01;1589753;88;20931;-79
2022/11/22 03:10:52;;;;;;;61.75;27.37;;;;;;;-1.72;81.12;99886.25;1591339;88;20944;-79
2022/11/22 03:13:38;;;;;;;74.07;28.73;;;;;;;-1.74;81.09;99892.96;1583614;88;21036;-80
2022/11/22 03:16:23;;;;;;;72.37;28.02;;;;;;;-1.75;81.16;99886.18;1553764;90;21457;-79
2022/11/22 03:19:08;;;;;;;67.55;26.33;;;;;;;-1.72;81.25;99886.25;1558137;87;21339;-80
2022/11/22 03:21:52;;;;;;;61.70;26.12;;;;;;;-1.71;81.21;99879.50;1557860;89;20948;-79
2022/11/22 03:24:37;;;;;;;65.03;27.10;;;;;;;-1.70;81.19;99877.00;1553622;90;20952;-79
2022/11/22 03:27:22;;;;;;;69.82;28.25;;;;;;;-1.73;81.18;99876.08;1555176;89;20971;-79
2022/11/22 03:30:08;;;;;;;67.97;28.87;;;;;;;-1.73;81.21;99880.73;1553615;90;20918;-79
2022/11/22 03:32:53;;;;;;;64.62;28.60;;;;;;;-1.70;81.22;99879.95;1554777;90;21001;-79
2022/11/22 03:35:38;;;;;;;67.08;29.98;;;;;;;-1.70;81.20;99873.20;1546812;90;20964;-80
2022/11/22 03:38:23;;;;;;;60.67;26.75;;;;;;;-1.66;81.34;99875.39;1549597;90;20991;-79
2022/11/22 03:41:08;;;;;;;70.72;30.80;;;;;;;-1.65;81.29;99866.96;1553876;90;21056;-79
2022/11/22 03:43:52;;;;;;;60.70;26.82;;;;;;;-1.62;81.29;99871.23;1555667;89;20957;-79
2022/11/22 03:46:38;;;;;;;60.23;26.80;;;;;;;-1.59;81.32;99870.89;1552332;90;21866;-79
2022/11/22 03:49:23;;;;;;;67.42;28.42;;;;;;;-1.52;81.38;99871.43;1552734;90;20962;-79
2022/11/22 03:52:08;;;;;;;72.62;29.00;;;;;;;-1.48;81.37;99873.20;1554267;90;20988;-79
2022/11/22 03:54:53;;;;;;;71.00;29.93;;;;;;;-1.51;81.19;99870.60;1554049;90;21054;-79
2022/11/22 03:57:38;;;;;;;70.92;28.77;;;;;;;-1.51;81.24;99866.80;1545785;90;21526;-79
2022/11/22 04:00:23;;;;;;;67.22;28.80;;;;;;;-1.51;81.25;99868.48;1549769;89;21961;-79
2022/11/22 04:03:08;;;;;;;65.92;29.00;;;;;;;-1.49;81.28;99870.63;1548201;90;20992;-79
2022/11/22 04:05:53;;;;;;;78.07;30.32;;;;;;;-1.53;81.24;99868.45;1550185;90;20953;-79
2022/11/22 04:08:38;;;;;;;76.77;31.77;;;;;;;-1.56;81.23;99874.72;1549588;90;20969;-79
2022/11/22 04:11:23;;;;;;;69.10;28.95;;;;;;;-1.57;81.27;99870.51;1549649;90;21462;-79
2022/11/22 04:17:39;;;;;;;78.37;31.48;;;;;;;-1.50;81.36;99877.39;1578419;89;20968;-79
2022/11/22 04:23:12;;;;;;;66.47;28.98;;;;;;;-1.44;81.37;99877.92;1577331;89;21016;-79
2022/11/22 04:25:57;;;;;;;75.72;30.40;;;;;;;-1.44;81.37;99874.98;1565150;89;21019;-78
2022/11/22 04:28:42;;;;;;;69.07;29.90;;;;;;;-1.43;81.31;99871.61;1574276;89;21371;-79
2022/11/22 04:34:30;;;;;;;76.82;29.87;;;;;;;-1.45;81.34;99878.75;1580246;87;20996;-79
2022/11/22 04:37:15;;;;;;;73.62;29.60;;;;;;;-1.44;81.37;99879.19;1536358;91;20998;-79
2022/11/22 04:40:00;;;;;;;79.95;31.07;;;;;;;-1.42;81.40;99880.94;1568867;89;21399;-78
2022/11/22 04:45:49;;;;;;;75.35;29.98;;;;;;;-1.45;81.27;99888.48;1580882;88;21050;-79
2022/11/22 04:48:34;;;;;;;72.10;30.32;;;;;;;-1.51;81.24;99876.09;1581146;86;20970;-79
2022/11/22 04:54:23;;;;;;;75.08;29.55;;;;;;;-1.53;81.32;99870.98;1580244;88;21142;-78
2022/11/22 04:57:08;;;;;;;77.27;31.62;;;;;;;-1.50;81.42;99866.39;1576535;88;21066;-78
2022/11/22 04:59:53;;;;;;;85.27;31.37;;;;;;;-1.49;81.42;99870.22;1579238;89;21078;-79
2022/11/22 05:02:38;;;;;;;81.27;32.17;;;;;;;-1.47;81.39;99875.33;1578418;88;21070;-78
2022/11/22 05:05:24;;;;;;;92.50;32.98;;;;;;;-1.43;81.45;99880.49;1537825;91;21472;-79
2022/11/22 05:08:10;;;;;;;77.90;31.07;;;;;;;-1.43;81.38;99880.49;1575522;88;21556;-79
2022/11/22 05:10:55;;;;;;;86.72;32.08;;;;;;;-1.44;81.39;99877.52;1568882;89;21056;-79
2022/11/22 05:13:41;;;;;;;82.62;31.33;;;;;;;-1.46;81.35;99885.50;1579950;88;21611;-79
2022/11/22 05:16:27;;;;;;;83.40;32.53;;;;;;;-1.51;81.27;99871.87;1575243;87;21124;-79
2022/11/22 05:19:12;;;;;;;82.13;29.73;;;;;;;-1.53;81.30;99879.86;1574025;88;21065;-79
2022/11/22 05:21:57;;;;;;;81.13;32.37;;;;;;;-1.54;81.40;99878.14;1573453;89;21946;-79
2022/11/22 05:24:42;;;;;;;79.97;30.37;;;;;;;-1.54;81.39;99895.03;1571753;88;21109;-79
2022/11/22 05:27:27;;;;;;;86.67;30.97;;;;;;;-1.57;81.39;99893.33;1572990;89;22325;-78
2022/11/22 05:30:13;;;;;;;79.50;31.30;;;;;;;-1.58;81.39;99887.81;1569152;89;21129;-78
2022/11/22 05:32:58;;;;;;;82.62;30.77;;;;;;;-1.57;81.45;99890.79;1572810;89;21135;-78
2022/11/22 05:35:43;;;;;;;85.72;30.90;;;;;;;-1.54;81.43;99888.70;1571833;88;21591;-78
2022/11/22 05:38:28;;;;;;;90.10;30.53;;;;;;;-1.57;81.37;99887.40;1572640;89;21087;-78
2022/11/22 05:41:15;;;;;;;84.45;30.40;;;;;;;-1.58;81.44;99878.94;1574151;88;21539;-79
2022/11/22 05:44:00;;;;;;;91.85;33.53;;;;;;;-1.58;81.45;99880.62;1557580;89;21136;-77
2022/11/22 05:46:45;;;;;;;91.35;32.50;;;;;;;-1.57;81.47;99884.45;1572156;89;22336;-78
2022/11/22 05:49:31;;;;;;;85.87;31.57;;;;;;;-1.55;81.40;99892.91;1572991;89;21646;-78
2022/11/22 05:52:16;;;;;;;95.35;32.00;;;;;;;-1.58;81.41;99899.63;1571043;88;21141;-78
2022/11/22 05:55:02;;;;;;;93.78;33.35;;;;;;;-1.56;81.47;99901.34;1577178;88;21120;-79
2022/11/22 05:57:47;;;;;;;91.35;34.30;;;;;;;-1.53;81.44;99899.28;1571068;89;21643;-79
2022/11/22 06:00:32;;;;;;;94.00;32.73;;;;;;;-1.52;81.44;99894.66;1572523;89;21057;-79
2022/11/22 06:03:17;;;;;;;96.42;34.88;;;;;;;-1.51;81.46;99894.69;1570358;88;21121;-79
2022/11/22 06:06:04;;;;;;;93.67;32.83;;;;;;;-1.52;81.42;99870.58;1570727;89;21100;-79
2022/11/22 06:08:50;;;;;;;86.47;32.08;;;;;;;-1.52;81.47;99869.30;1571861;89;21091;-78
2022/11/22 06:11:35;;;;;;;80.55;31.80;;;;;;;-1.50;81.45;99870.19;1571341;89;21070;-78
2022/11/22 06:14:20;;;;;;;92.97;33.73;;;;;;;-1.48;81.52;99867.28;1573488;89;21120;-78
2022/11/22 06:17:06;;;;;;;74.72;29.72;;;;;;;-1.44;81.59;99866.52;1570009;89;21017;-79
2022/11/22 06:19:51;;;;;;;85.25;31.05;;;;;;;-1.44;81.51;99862.71;1571874;89;22072;-79
2022/11/22 06:22:36;;;;;;;74.90;29.30;;;;;;;-1.45;81.39;99874.53;1565063;89;21084;-79
2022/11/22 06:25:21;;;;;;;78.90;30.50;;;;;;;-1.47;81.42;99876.19;1553375;89;21085;-79
2022/11/22 06:28:06;;;;;;;75.70;30.50;;;;;;;-1.45;81.47;99882.55;1574455;89;21099;-79
2022/11/22 06:30:51;;;;;;;74.33;30.07;;;;;;;-1.44;81.49;99883.85;1572074;88;21492;-78
2022/11/22 06:33:38;;;;;;;84.90;31.07;;;;;;;-1.46;81.36;99889.30;1571117;89;21148;-79
2022/11/22 06:36:30;;;;;;;77.82;30.85;;;;;;;-1.49;81.33;99892.19;1570461;88;21185;-79
2022/11/22 06:39:15;;;;;;;78.70;30.85;;;;;;;-1.51;81.38;99892.16;1569653;87;21087;-79
2022/11/22 06:42:00;;;;;;;69.47;29.27;;;;;;;-1.50;81.46;99884.14;1569590;89;21733;-79
2022/11/22 06:44:45;;;;;;;67.32;28.80;;;;;;;-1.45;81.50;99887.63;1568834;89;21154;-79
2022/11/22 06:47:30;;;;;;;76.50;29.90;;;;;;;-1.44;81.52;99907.94;1572192;88;21624;-79
2022/11/22 06:50:16;;;;;;;71.97;29.20;;;;;;;-1.40;81.53;99907.17;1571286;89;21764;-79
2022/11/22 06:53:01;;;;;;;72.15;27.48;;;;;;;-1.36;81.52;99903.88;1572563;89;21565;-79
2022/11/22 06:55:46;;;;;;;77.37;30.05;;;;;;;-1.34;81.50;99899.70;1572024;89;21513;-79
2022/11/22 06:58:31;;;;;;;74.87;29.57;;;;;;;-1.35;81.37;99910.66;1570743;89;21129;-79
2022/11/22 07:01:23;;;;;;;70.08;29.27;;;;;;;-1.39;81.36;99915.23;1574249;88;21113;-79
2022/11/22 07:04:09;;;;;;;67.40;26.23;;;;;;;-1.37;81.43;99922.45;1573296;89;21162;-79
2022/11/22 07:06:54;;;;;;;65.97;27.45;;;;;;;-1.36;81.43;99932.19;1570808;89;21137;-79
2022/11/22 07:09:39;;;;;;;71.20;26.82;;;;;;;-1.36;81.47;99924.16;1557553;90;21084;-79
2022/11/22 07:12:25;;;;;;;67.50;27.17;;;;;;;-1.36;81.41;99929.23;1572612;89;21089;-78
2022/11/22 07:15:10;;;;;;;72.22;28.85;;;;;;;-1.34;81.44;99933.07;1570267;89;21137;-78
2022/11/22 07:17:55;;;;;;;76.85;28.50;;;;;;;-1.32;81.46;99933.11;1570147;89;21569;-78
2022/11/22 07:20:40;;;;;;;73.20;29.90;;;;;;;-1.32;81.37;99935.23;1569723;89;21696;-79
2022/11/22 07:23:25;;;;;;;68.75;26.30;;;;;;;-1.32;81.36;99940.30;1568915;89;21087;-79
2022/11/22 07:26:12;;;;;;;69.15;27.65;;;;;;;-1.33;81.33;99938.59;1571912;89;21160;-79
2022/11/22 07:28:57;;;;;;;71.47;27.37;;;;;;;-1.35;81.34;99937.29;1562255;89;21099;-79
2022/11/22 07:31:45;;;;;;;60.63;24.77;;;;;;;-1.31;81.35;99936.08;1572221;89;21139;-79
2022/11/22 07:34:30;;;;;;;61.95;24.85;;;;;;;-1.32;81.37;99932.69;1567754;89;21136;-79
2022/11/22 07:37:15;;;;;;;72.00;27.53;;;;;;;-1.32;81.37;99926.35;1572915;89;21070;-79
2022/11/22 07:40:00;;;;;;;71.00;27.50;;;;;;;-1.33;81.28;99933.52;1560791;89;21120;-79
2022/11/22 07:42:45;;;;;;;68.33;27.67;;;;;;;-1.31;81.40;99936.08;1568200;89;21703;-79
2022/11/22 07:45:30;;;;;;;72.22;27.13;;;;;;;-1.32;81.34;99927.63;1565449;89;21123;-79
2022/11/22 07:48:15;;;;;;;66.27;27.17;;;;;;;-1.31;81.32;99937.35;1568583;89;21168;-79
2022/11/22 07:51:06;;;;;;;68.43;27.40;;;;;;;-1.29;81.42;99931.90;1552129;91;21133;-79
2022/11/22 07:53:51;;;;;;;74.20;28.98;;;;;;;-1.24;81.45;99930.31;1556498;90;21497;-79
2022/11/22 07:56:36;;;;;;;79.62;31.75;;;;;;;-1.19;81.42;99927.46;1556201;91;20965;-79
2022/11/22 07:59:21;;;;;;;77.45;29.87;;;;;;;-1.19;81.39;99925.78;1567285;89;21432;-79
2022/11/22 08:02:08;;;;;;;67.10;28.02;;;;;;;-1.20;81.32;99918.14;1567574;89;21505;-79
2022/11/22 08:04:53;;;;;;;71.02;28.55;;;;;;;-1.22;81.32;99923.59;1575138;89;21490;-79
2022/11/22 08:07:37;;;;;;;71.07;30.05;;;;;;;-1.22;81.34;99924.86;1571571;88;21931;-79
2022/11/22 08:10:23;;;;;;;66.10;28.77;;;;;;;-1.23;81.34;99927.81;1567221;89;21001;-79
2022/11/22 08:13:08;;;;;;;67.82;27.77;;;;;;;-1.21;81.40;99934.18;1572103;88;21081;-79
2022/11/22 08:15:53;;;;;;;66.35;29.82;;;;;;;-1.16;81.43;99944.01;1569457;89;21012;-79
2022/11/22 08:18:39;;;;;;;68.80;27.55;;;;;;;-1.13;81.46;99943.66;1574349;88;21537;-79
2022/11/22 08:21:24;;;;;;;65.30;27.77;;;;;;;-1.08;81.46;99950.95;1575060;88;20985;-79
2022/11/22 08:24:09;;;;;;;64.85;28.38;;;;;;;-1.04;81.44;99946.34;1543428;90;21044;-79
2022/11/22 08:26:54;;;;;;;63.95;27.15;;;;;;;-1.07;81.36;99946.32;1570386;89;21423;-79
2022/11/22 08:29:39;;;;;;;71.77;28.75;;;;;;;-1.07;81.45;99941.66;1572308;88;21525;-79
2022/11/22 08:32:24;;;;;;;66.72;30.05;;;;;;;-1.02;81.52;99940.89;1575414;89;20973;-79
2022/11/22 08:35:09;;;;;;;64.03;27.37;;;;;;;-1.00;81.43;99929.09;1574570;89;20941;-79
2022/11/22 08:37:57;;;;;;;66.60;29.50;;;;;;;-0.98;81.46;99939.27;1572723;89;20980;-79
2022/11/22 08:40:42;;;;;;;64.00;26.97;;;;;;;-0.99;81.36;99940.09;1576032;89;20993;-79
2022/11/22 08:43:27;;;;;;;71.60;30.32;;;;;;;-1.00;81.40;99934.58;1573503;89;21796;-79
2022/11/22 08:46:12;;;;;;;64.53;28.47;;;;;;;-1.00;81.43;99944.31;1575733;89;21069;-79
2022/11/22 08:48:57;;;;;;;72.47;30.68;;;;;;;-1.01;81.41;99941.75;1574513;89;21433;-79
2022/11/22 08:51:44;;;;;;;73.62;30.57;;;;;;;-1.00;81.49;99937.11;1577189;89;21024;-79
2022/11/22 08:54:28;;;;;;;63.17;27.40;;;;;;;-0.97;81.46;99935.91;1574714;88;20985;-78
2022/11/22 08:57:13;;;;;;;66.07;28.92;;;;;;;-0.95;81.52;99937.20;1573674;89;21037;-79
2022/11/22 08:59:58;;;;;;;71.82;30.90;;;;;;;-0.91;81.51;99941.52;1573970;89;20997;-79
2022/11/22 09:02:43;;;;;;;62.75;28.77;;;;;;;-0.92;81.47;99939.80;1573422;89;21076;-79
2022/11/22 09:05:29;;;;;;;75.70;31.87;;;;;;;-0.88;81.58;99943.70;1576474;89;21086;-79
2022/11/22 09:08:14;;;;;;;65.12;29.55;;;;;;;-0.83;81.58;99942.52;1533932;91;21419;-79
2022/11/22 09:11:02;;;;;;;65.67;29.37;;;;;;;-0.81;81.56;99942.13;1570553;89;21014;-79
2022/11/22 09:13:47;;;;;;;77.08;31.15;;;;;;;-0.86;81.43;99933.58;1570364;89;21033;-79
2022/11/22 09:16:32;;;;;;;79.90;32.08;;;;;;;-0.88;81.47;99937.35;1576728;89;21072;-79
2022/11/22 09:19:17;;;;;;;78.62;31.37;;;;;;;-0.84;81.62;99939.13;1574641;89;21402;-79
2022/11/22 09:22:02;;;;;;;81.80;32.45;;;;;;;-0.82;81.58;99937.47;1572712;89;21066;-79
2022/11/22 09:24:47;;;;;;;77.67;33.70;;;;;;;-0.77;81.63;99945.17;1555371;90;20970;-79
2022/11/22 09:27:33;;;;;;;81.72;34.40;;;;;;;-0.75;81.58;99940.56;1563213;91;20950;-79
2022/11/22 09:30:18;;;;;;;79.27;33.80;;;;;;;-0.73;81.64;99945.26;1569835;89;20968;-79
2022/11/22 09:33:03;;;;;;;76.40;33.30;;;;;;;-0.69;81.65;99936.02;1574532;89;21081;-79
2022/11/22 09:35:48;;;;;;;73.78;31.80;;;;;;;-0.66;81.60;99928.45;1575146;86;20989;-79
2022/11/22 09:38:34;;;;;;;75.60;33.23;;;;;;;-0.65;81.55;99927.63;1572948;89;20997;-79
2022/11/22 09:41:51;;;;;;;76.82;33.18;;;;;;;-0.67;81.53;99926.75;1557443;89;21627;-79
2022/11/22 09:44:53;;;;;;;81.92;34.23;;;;;;;-0.68;81.58;99918.28;1572569;89;21016;-79
2022/11/22 09:47:52;;;;;;;80.92;33.92;;;;;;;-0.65;81.59;99917.89;1574525;89;21001;-79
2022/11/22 09:51:01;;;;;;;73.65;33.33;;;;;;;-0.61;81.68;99912.04;1566997;89;21918;-79
2022/11/22 09:53:53;;;;;;;82.53;33.55;;;;;;;-0.61;81.56;99911.63;1576894;89;20978;-79
2022/11/22 09:56:38;;;;;;;74.70;35.08;;;;;;;-0.63;81.57;99900.59;1572135;89;21010;-79
2022/11/22 09:59:31;;;;;;;86.50;35.65;;;;;;;-0.62;81.60;99896.36;1577308;88;20950;-79
2022/11/22 10:02:41;;;;;;;79.45;34.30;;;;;;;-0.64;81.58;99889.98;1572487;89;21509;-79
2022/11/22 10:05:34;;;;;;;80.57;36.13;;;;;;;-0.63;81.59;99891.70;1550704;90;21016;-79
2022/11/22 10:08:54;;;;;;;87.78;36.80;;;;;;;-0.64;81.56;99886.19;1573972;89;21009;-79
2022/11/22 10:12:05;;;;;;;78.00;34.55;;;;;;;-0.63;81.61;99879.42;1575492;89;21519;-79
2022/11/22 10:15:28;;;;;;;71.62;35.05;;;;;;;-0.57;81.73;99878.26;1575808;89;21328;-79
2022/11/22 10:18:24;;;;;;;84.50;36.23;;;;;;;-0.49;81.69;99880.48;1552706;89;21099;-79
2022/11/22 10:21:13;;;;;;;79.85;36.10;;;;;;;-0.42;81.73;99875.52;1553052;90;21621;-79
2022/11/22 10:23:59;;;;;;;80.10;34.60;;;;;;;-0.39;81.68;99882.34;1553029;89;21139;-79
2022/11/22 10:26:45;;;;;;;77.27;33.63;;;;;;;-0.35;81.70;99877.75;1544349;91;21519;-79
2022/11/22 10:29:50;;;;;;;61.88;29.35;;;;;;;-0.36;81.58;99878.58;1547370;90;21957;-79
2022/11/22 10:32:47;;;;;;;61.42;29.77;;;;;;;-0.38;81.59;99879.83;1550446;91;21643;-79
2022/11/22 10:35:52;;;;;;;;;;;;;;;-0.45;81.56;99872.94;1537687;91;21080;-79
2022/11/22 10:38:58;;;;;;;62.30;27.30;;;;;;;-0.45;81.68;99865.73;1548938;90;20207;-79
2022/11/22 10:41:57;;;;;;;63.00;29.80;;;;;;;-0.40;81.73;99860.31;1547608;89;21087;-79
2022/11/22 10:45:03;;;;;;;68.55;34.05;;;;;;;-0.38;81.75;99857.38;1517060;90;21143;-79
2022/11/22 10:48:18;;;;;;;66.82;30.27;;;;;;;-0.35;81.75;99860.83;1541999;90;21092;-79
2022/11/22 10:51:29;;;;;;;66.75;31.12;;;;;;;-0.32;81.78;99863.83;1545246;90;21098;-79
2022/11/22 10:54:23;;;;;;;75.67;32.25;;;;;;;-0.26;81.78;99868.16;1546490;89;21698;-79
2022/11/22 10:57:21;;;;;;;63.70;29.37;;;;;;;-0.35;81.57;99862.52;1531640;91;21164;-79
2022/11/22 11:00:23;;;;;;;62.67;29.95;;;;;;;-0.39;81.68;99860.75;1551527;89;22053;-79
2022/11/22 11:03:22;;;;;;;67.67;30.15;;;;;;;-0.35;81.77;99867.17;1535384;91;21748;-79
2022/11/22 11:06:33;;;;;;;61.10;29.35;;;;;;;-0.35;81.79;99856.16;1543599;91;21095;-79
2022/11/22 11:09:35;;;;;;;64.42;30.43;;;;;;;-0.37;81.81;99853.59;1530336;90;21080;-79
2022/11/22 11:12:44;;;;;;;66.12;30.32;;;;;;;-0.42;81.72;99849.28;1546823;91;21118;-79
2022/11/22 11:15:42;;;;;;;66.10;30.27;;;;;;;-0.43;81.78;99847.56;1545969;90;21108;-79
2022/11/22 11:18:53;;;;;;;62.83;30.92;;;;;;;-0.38;81.98;99858.23;1564848;89;22608;-79
2022/11/22 11:21:37;;;;;;;72.85;32.23;;;;;;;-0.32;81.91;99855.36;1571490;89;21644;-79
2022/11/22 11:24:22;;;;;;;65.50;31.17;;;;;;;-0.32;81.92;99870.18;1541743;90;21820;-79
2022/11/22 11:27:10;;;;;;;71.57;32.20;;;;;;;-0.32;81.95;99864.25;1567254;89;21602;-79
2022/11/22 11:30:04;;;;;;;75.05;32.33;;;;;;;-0.32;81.91;99862.56;1571491;89;21172;-79
2022/11/22 11:32:53;;;;;;;64.55;31.15;;;;;;;-0.34;81.96;99858.73;1570638;89;21569;-79
2022/11/22 11:35:40;;;;;;;68.02;30.00;;;;;;;-0.29;82.06;99859.22;1566797;89;21605;-79
2022/11/22 11:38:41;;;;;;;70.60;31.15;;;;;;;-0.24;82.08;99853.38;1557436;89;21033;-79
2022/11/22 11:41:33;;;;;;;67.95;31.05;;;;;;;-0.20;82.12;99846.66;1572179;89;21544;-79
2022/11/22 11:44:31;;;;;;;70.83;30.82;;;;;;;-0.17;82.09;99845.02;1545671;89;21115;-79
2022/11/22 11:47:33;;;;;;;71.67;30.72;;;;;;;-0.14;82.12;99848.02;1568256;89;21077;-79
2022/11/22 11:50:22;;;;;;;68.95;30.05;;;;;;;-0.13;82.13;99854.81;1566690;89;21571;-79
2022/11/22 11:53:13;;;;;;;64.50;27.52;;;;;;;-0.12;82.19;99861.18;1569542;89;21117;-79
2022/11/22 11:56:26;;;;;;;67.78;29.85;;;;;;;-0.07;82.23;99861.25;1579181;89;21704;-79
2022/11/22 11:59:24;;;;;;;65.52;28.55;;;;;;;-0.09;82.15;99851.48;1573413;89;21098;-79
2022/11/22 12:02:41;;;;;;;64.17;28.40;;;;;;;-0.10;82.20;99858.66;1573165;89;21164;-79
2022/11/22 12:05:30;;;;;;;69.67;27.65;;;;;;;-0.11;82.22;99842.56;1573550;89;21117;-79
2022/11/22 12:08:31;;;;;;;72.55;29.72;;;;;;;-0.09;82.22;99847.25;1572701;88;21085;-79
2022/11/22 12:11:21;;;;;;;61.20;26.50;;;;;;;-0.09;82.28;99843.44;1572257;89;21083;-79
2022/11/22 12:14:11;;;;;;;61.10;25.17;;;;;;;-0.06;82.29;99852.80;1557020;90;21070;-79
2022/11/22 12:17:00;;;;;;;60.35;27.42;;;;;;;-0.02;82.30;99859.62;1571936;89;21459;-79
2022/11/22 12:20:05;;;;;;;59.08;24.92;;;;;;;0.02;82.36;99860.50;1564073;89;21049;-79
2022/11/22 12:23:10;;;;;;;61.08;24.45;;;;;;;0.05;82.47;99866.48;1562544;89;21096;-79
2022/11/22 12:25:57;;;;;;;65.55;26.10;;;;;;;0.11;82.49;99863.17;1572319;88;26714;-78
2022/11/22 12:28:43;;;;;;;62.45;26.07;;;;;;;0.16;82.50;99870.44;1575980;89;20953;-77
2022/11/22 12:31:35;;;;;;;64.32;26.20;;;;;;;0.17;82.50;99859.02;1572613;89;21120;-78
2022/11/22 12:34:25;;;;;;;71.65;29.48;;;;;;;0.22;82.54;99851.46;1572498;89;21520;-77
2022/11/22 12:37:21;;;;;;;69.85;28.70;;;;;;;0.26;82.54;99847.70;1570189;89;21097;-79
2022/11/22 12:40:18;;;;;;;69.03;26.73;;;;;;;0.32;82.50;99852.02;1576938;89;21092;-80
2022/11/22 12:43:26;;;;;;;59.60;25.77;;;;;;;0.35;82.50;99849.94;1560426;89;21593;-79
2022/11/22 12:46:19;;;;;;;70.83;27.10;;;;;;;0.37;82.50;99854.63;1572654;89;21071;-79
2022/11/22 12:49:30;;;;;;;71.07;29.30;;;;;;;0.38;82.48;99857.19;1548856;90;21167;-79
2022/11/22 12:52:42;;;;;;;74.90;30.45;;;;;;;0.38;82.50;99857.61;1542112;89;21132;-79
2022/11/22 12:55:35;;;;;;;76.50;30.05;;;;;;;0.42;82.58;99856.39;1566845;89;21423;-79
2022/11/22 12:58:28;;;;;;;75.97;31.97;;;;;;;0.46;82.58;99856.02;1565337;90;22141;-79
2022/11/22 13:01:40;;;;;;;73.50;28.87;;;;;;;0.46;82.59;99853.05;1540010;91;21090;-79
2022/11/22 13:04:36;;;;;;;72.62;29.35;;;;;;;0.46;82.57;99851.78;1562861;89;21623;-79
2022/11/22 13:07:32;;;;;;;67.42;28.38;;;;;;;0.48;82.65;99848.84;1565738;89;21657;-77
2022/11/22 13:11:05;;;;;;;74.95;28.80;;;;;;;0.52;82.71;99851.00;1564571;87;21084;-78
2022/11/22 13:13:55;;;;;;;64.27;27.45;;;;;;;0.55;82.72;99850.59;1576669;88;21171;-80